Time;durP1;ratioP1;P1;durP2;ratioP2;P2;SDS_P1;SDS_P2;PMS_P1;PMS_P2;Temp;Humidity;BMP_temperature;BMP_pressure;BME280_temperature;BME280_humidity;BME280_pressure;Samples;Min_cycle;Max_cycle;Signal;HPM_P1;HPM_P2
2022/04/04 00:01:12;;;;;;;6.90;3.53;;;;;;;;;;5116877;28;20055;-25
2022/04/04 00:03:38;;;;;;;8.38;3.17;;;;;;;;;;5097962;28;20047;-25
2022/04/04 00:06:05;;;;;;;7.40;3.53;;;;;;;;;;5116094;28;20043;-25
2022/04/04 00:08:33;;;;;;;8.70;3.50;;;;;;;;;;5116116;28;20044;-25
2022/04/04 00:10:59;;;;;;;9.27;4.07;;;;;;;;;;5115988;28;20058;-25
2022/04/04 00:13:27;;;;;;;6.87;3.03;;;;;;;;;;5116523;28;20040;-25
2022/04/04 00:15:53;;;;;;;5.70;2.50;;;;;;;;;;5115905;28;20054;-26
2022/04/04 00:18:19;;;;;;;5.70;3.43;;;;;;;;;;5115817;28;20048;-25
2022/04/04 00:20:45;;;;;;;8.30;3.67;;;;;;;;;;5115762;28;20047;-25
2022/04/04 00:23:12;;;;;;;4.87;3.57;;;;;;;;;;5097750;28;20048;-25
2022/04/04 00:25:42;;;;;;;5.23;2.80;;;;;;;;;;5115720;28;20047;-25
2022/04/04 00:28:09;;;;;;;6.00;3.17;;;;;;;;;;5115659;28;20039;-25
2022/04/04 00:30:35;;;;;;;9.57;3.60;;;;;;;;;;5115465;28;20048;-25
2022/04/04 00:33:01;;;;;;;4.80;2.47;;;;;;;;;;5098050;28;20048;-25
2022/04/04 00:35:28;;;;;;;6.20;2.33;;;;;;;;;;5115506;28;20104;-25
2022/04/04 00:37:55;;;;;;;6.77;2.67;;;;;;;;;;5116206;28;20142;-25
2022/04/04 00:40:21;;;;;;;4.67;2.77;;;;;;;;;;5097455;28;20047;-26
2022/04/04 00:42:47;;;;;;;8.18;3.13;;;;;;;;;;5096678;28;20040;-25
2022/04/04 00:45:13;;;;;;;4.83;2.90;;;;;;;;;;5116146;28;20126;-25
2022/04/04 00:47:39;;;;;;;3.97;2.20;;;;;;;;;;5115297;28;20054;-26
2022/04/04 00:50:06;;;;;;;7.20;3.43;;;;;;;;;;5115195;28;20083;-25
2022/04/04 00:52:32;;;;;;;9.10;3.37;;;;;;;;;;5115243;28;20056;-25
2022/04/04 00:54:58;;;;;;;5.23;2.90;;;;;;;;;;5115139;28;20404;-25
2022/04/04 00:57:24;;;;;;;3.43;2.90;;;;;;;;;;5115005;28;20048;-25
2022/04/04 00:59:51;;;;;;;6.57;3.37;;;;;;;;;;5115696;28;20384;-25
2022/04/04 01:02:17;;;;;;;5.90;3.40;;;;;;;;;;5114975;28;20510;-25
2022/04/04 01:04:43;;;;;;;8.18;3.33;;;;;;;;;;5096913;28;20082;-25
2022/04/04 01:07:09;;;;;;;7.50;3.25;;;;;;;;;;5096692;28;20043;-27
2022/04/04 01:09:35;;;;;;;4.80;2.65;;;;;;;;;;5114872;28;20442;-25
2022/04/04 01:12:06;;;;;;;5.83;3.87;;;;;;;;;;5115342;28;20130;-26
2022/04/04 01:14:32;;;;;;;7.27;3.90;;;;;;;;;;5096829;28;20052;-26
2022/04/04 01:16:58;;;;;;;10.37;4.07;;;;;;;;;;5114913;28;20048;-26
2022/04/04 01:19:24;;;;;;;7.75;4.13;;;;;;;;;;5115299;28;20047;-27
2022/04/04 01:21:50;;;;;;;6.53;4.20;;;;;;;;;;5114639;28;20043;-26
2022/04/04 01:24:20;;;;;;;9.32;4.80;;;;;;;;;;5114567;28;20089;-26
2022/04/04 01:26:47;;;;;;;6.80;4.20;;;;;;;;;;5115100;28;20378;-26
2022/04/04 01:29:13;;;;;;;8.87;5.47;;;;;;;;;;5096378;28;20477;-26
2022/04/04 01:31:39;;;;;;;9.63;4.70;;;;;;;;;;5115030;28;20047;-26
2022/04/04 01:34:05;;;;;;;7.57;5.18;;;;;;;;;;5114419;28;20126;-26
2022/04/04 01:36:31;;;;;;;7.65;4.40;;;;;;;;;;5114277;28;20130;-27
2022/04/04 01:38:58;;;;;;;12.75;5.25;;;;;;;;;;5114373;28;20043;-26
2022/04/04 01:41:24;;;;;;;9.05;5.40;;;;;;;;;;5114338;28;20044;-26
2022/04/04 01:43:51;;;;;;;8.43;5.13;;;;;;;;;;5114384;28;20047;-27
2022/04/04 01:46:29;;;;;;;12.43;7.03;;;;;;;;;;5114286;28;20047;-26
2022/04/04 01:48:56;;;;;;;12.27;6.60;;;;;;;;;;5114338;28;20044;-26
2022/04/04 01:51:22;;;;;;;8.67;6.33;;;;;;;;;;5114247;28;20405;-26
2022/04/04 01:53:49;;;;;;;10.97;7.73;;;;;;;;;;5113892;28;20047;-26
2022/04/04 01:56:15;;;;;;;12.32;6.60;;;;;;;;;;5114200;28;20377;-26
2022/04/04 01:58:41;;;;;;;10.15;6.60;;;;;;;;;;5114070;28;20054;-26
2022/04/04 02:01:11;;;;;;;14.32;7.80;;;;;;;;;;5114742;28;20498;-26
2022/04/04 02:03:37;;;;;;;11.68;7.30;;;;;;;;;;5114387;28;20039;-26
2022/04/04 02:06:04;;;;;;;12.48;7.82;;;;;;;;;;5114638;28;20050;-27
2022/04/04 02:08:31;;;;;;;14.57;9.50;;;;;;;;;;5114086;28;20123;-26
2022/04/04 02:10:57;;;;;;;13.37;9.30;;;;;;;;;;5114245;28;20521;-25
2022/04/04 02:13:25;;;;;;;18.70;10.70;;;;;;;;;;5114566;28;20127;-26
2022/04/04 02:15:52;;;;;;;19.50;12.50;;;;;;;;;;5114523;28;20058;-26
2022/04/04 02:18:18;;;;;;;19.83;11.70;;;;;;;;;;5113899;28;20044;-26
2022/04/04 02:20:44;;;;;;;17.63;11.23;;;;;;;;;;5113959;28;20047;-26
2022/04/04 02:23:10;;;;;;;15.70;10.23;;;;;;;;;;5113908;28;20126;-26
2022/04/04 02:25:37;;;;;;;20.80;12.93;;;;;;;;;;5114687;28;20078;-26
2022/04/04 02:28:03;;;;;;;13.67;10.07;;;;;;;;;;5113998;28;20469;-26
2022/04/04 02:30:30;;;;;;;20.50;14.30;;;;;;;;;;5095669;28;20079;-26
2022/04/04 02:32:56;;;;;;;21.37;13.77;;;;;;;;;;5114567;28;20176;-26
2022/04/04 02:35:22;;;;;;;17.60;12.10;;;;;;;;;;5113754;28;20087;-26
2022/04/04 02:37:48;;;;;;;21.43;14.33;;;;;;;;;;5114008;28;20055;-26
2022/04/04 02:40:14;;;;;;;19.53;13.33;;;;;;;;;;5095946;28;20048;-27
2022/04/04 02:42:40;;;;;;;20.23;12.50;;;;;;;;;;5096348;28;20044;-27
2022/04/04 02:45:07;;;;;;;20.43;14.67;;;;;;;;;;5113703;28;20047;-26
2022/04/04 02:47:33;;;;;;;17.27;9.70;;;;;;;;;;5095719;28;20050;-26
2022/04/04 02:49:59;;;;;;;15.57;11.53;;;;;;;;;;5113665;28;20130;-27
2022/04/04 02:52:25;;;;;;;18.27;13.53;;;;;;;;;;5113592;28;20052;-26
2022/04/04 02:54:51;;;;;;;17.98;12.82;;;;;;;;;;5095491;28;20049;-26
2022/04/04 02:57:17;;;;;;;17.30;12.30;;;;;;;;;;5113506;28;20044;-26
2022/04/04 02:59:44;;;;;;;18.17;13.13;;;;;;;;;;5113855;28;20055;-27
2022/04/04 03:02:10;;;;;;;17.37;12.73;;;;;;;;;;5113543;28;20048;-27
2022/04/04 03:04:40;;;;;;;17.53;13.83;;;;;;;;;;5095554;28;20047;-27
2022/04/04 03:07:06;;;;;;;16.17;11.37;;;;;;;;;;5115857;28;20052;-27
2022/04/04 03:09:32;;;;;;;14.03;10.50;;;;;;;;;;5099419;28;20097;-26
2022/04/04 03:11:58;;;;;;;20.30;12.40;;;;;;;;;;5116924;28;20565;-27
2022/04/04 03:14:24;;;;;;;17.23;11.55;;;;;;;;;;5099435;28;20054;-27
2022/04/04 03:16:50;;;;;;;22.07;14.17;;;;;;;;;;5117617;28;20050;-26
2022/04/04 03:19:16;;;;;;;22.67;14.70;;;;;;;;;;5116947;28;20047;-27
2022/04/04 03:21:44;;;;;;;19.47;12.73;;;;;;;;;;5116979;28;20047;-27
2022/04/04 03:24:10;;;;;;;18.97;13.27;;;;;;;;;;5116588;28;20509;-27
2022/04/04 03:26:36;;;;;;;23.33;16.02;;;;;;;;;;5116817;28;20051;-27
2022/04/04 03:29:02;;;;;;;25.05;14.68;;;;;;;;;;5116805;28;20073;-27
2022/04/04 03:31:29;;;;;;;15.65;11.27;;;;;;;;;;5117300;28;20043;-26
2022/04/04 03:33:55;;;;;;;17.73;11.63;;;;;;;;;;5116632;28;20047;-26
2022/04/04 03:36:21;;;;;;;19.53;11.77;;;;;;;;;;5116711;28;20039;-26
2022/04/04 03:38:47;;;;;;;17.97;11.97;;;;;;;;;;5116519;28;20488;-26
2022/04/04 03:41:13;;;;;;;15.73;10.45;;;;;;;;;;5099217;28;20043;-25
2022/04/04 03:43:40;;;;;;;15.07;10.93;;;;;;;;;;5098383;28;20044;-25
2022/04/04 03:46:06;;;;;;;14.30;9.80;;;;;;;;;;5116512;28;20054;-25
2022/04/04 03:48:32;;;;;;;16.08;10.90;;;;;;;;;;5098565;28;20079;-25
2022/04/04 03:50:58;;;;;;;14.67;10.23;;;;;;;;;;5116650;28;20373;-25
2022/04/04 03:53:24;;;;;;;26.85;11.98;;;;;;;;;;5116322;28;20057;-25
2022/04/04 03:55:50;;;;;;;18.23;12.82;;;;;;;;;;5116576;28;20473;-25
2022/04/04 03:58:17;;;;;;;22.30;11.47;;;;;;;;;;5098145;28;20047;-25
2022/04/04 04:00:43;;;;;;;15.18;10.85;;;;;;;;;;5098009;28;20460;-26
2022/04/04 04:03:09;;;;;;;22.98;12.02;;;;;;;;;;5098505;28;20044;-25
2022/04/04 04:05:36;;;;;;;17.75;10.85;;;;;;;;;;5098488;28;20083;-26
2022/04/04 04:08:03;;;;;;;17.52;10.43;;;;;;;;;;5116092;28;20092;-26
2022/04/04 04:10:29;;;;;;;25.10;13.25;;;;;;;;;;5116118;28;20051;-27
2022/04/04 04:12:56;;;;;;;20.48;11.10;;;;;;;;;;5116849;28;20102;-26
2022/04/04 04:15:23;;;;;;;20.92;11.30;;;;;;;;;;5097796;28;20050;-26
2022/04/04 04:17:52;;;;;;;17.77;10.95;;;;;;;;;;5097543;28;20043;-26
2022/04/04 04:20:22;;;;;;;20.95;10.90;;;;;;;;;;5115844;28;20160;-26
2022/04/04 04:22:50;;;;;;;14.07;9.48;;;;;;;;;;5098467;28;20493;-26
2022/04/04 04:25:16;;;;;;;24.35;14.27;;;;;;;;;;5115726;28;20565;-25
2022/04/04 04:27:43;;;;;;;18.73;10.95;;;;;;;;;;5115633;28;20040;-25
2022/04/04 04:30:10;;;;;;;21.85;12.85;;;;;;;;;;5115655;28;20043;-26
2022/04/04 04:32:36;;;;;;;14.73;9.90;;;;;;;;;;5116106;28;20052;-25
2022/04/04 04:35:03;;;;;;;24.33;13.00;;;;;;;;;;5115565;28;20040;-25
2022/04/04 04:37:29;;;;;;;26.00;13.00;;;;;;;;;;5115173;28;20477;-25
2022/04/04 04:39:55;;;;;;;15.43;10.50;;;;;;;;;;5116291;28;20087;-25
2022/04/04 04:42:22;;;;;;;16.97;9.87;;;;;;;;;;5115957;28;20126;-26
2022/04/04 04:44:48;;;;;;;16.80;10.55;;;;;;;;;;5115304;28;20395;-26
2022/04/04 04:47:16;;;;;;;12.63;8.03;;;;;;;;;;5115244;28;20054;-25
2022/04/04 04:49:42;;;;;;;12.47;8.73;;;;;;;;;;5097430;28;20134;-25
2022/04/04 04:52:09;;;;;;;15.70;9.25;;;;;;;;;;5097067;28;20439;-27
2022/04/04 04:54:35;;;;;;;14.27;8.73;;;;;;;;;;5115160;28;20047;-26
2022/04/04 04:57:01;;;;;;;19.73;12.37;;;;;;;;;;5115034;28;20047;-27
2022/04/04 04:59:27;;;;;;;18.20;10.57;;;;;;;;;;5114937;28;20143;-26
2022/04/04 05:01:53;;;;;;;21.30;10.63;;;;;;;;;;5081120;28;20112;-26
2022/04/04 05:04:19;;;;;;;21.92;12.13;;;;;;;;;;5114983;28;20047;-28
2022/04/04 05:06:49;;;;;;;20.27;12.32;;;;;;;;;;5115205;28;20586;-28
2022/04/04 05:09:16;;;;;;;22.37;8.83;;;;;;;;;;5115444;28;20126;-28
2022/04/04 05:11:42;;;;;;;19.40;10.13;;;;;;;;;;5096778;28;20055;-27
2022/04/04 05:14:15;;;;;;;14.33;9.13;;;;;;;;;;5115095;28;20044;-27
2022/04/04 05:16:41;;;;;;;15.20;7.35;;;;;;;;;;5115410;28;20047;-27
2022/04/04 05:19:07;;;;;;;17.07;10.33;;;;;;;;;;5115181;28;20130;-26
2022/04/04 05:21:34;;;;;;;14.40;8.50;;;;;;;;;;5114957;28;20047;-27
2022/04/04 05:24:00;;;;;;;22.47;13.23;;;;;;;;;;5096285;28;20047;-26
2022/04/04 05:26:26;;;;;;;16.50;9.73;;;;;;;;;;5114568;28;20140;-26
2022/04/04 05:28:52;;;;;;;22.70;9.43;;;;;;;;;;5096314;28;20048;-25
2022/04/04 05:31:18;;;;;;;17.67;10.53;;;;;;;;;;5114474;28;20043;-26
2022/04/04 05:33:45;;;;;;;14.37;7.53;;;;;;;;;;5114316;28;20067;-27
2022/04/04 05:36:11;;;;;;;14.50;9.80;;;;;;;;;;5114352;28;20081;-28
2022/04/04 05:38:37;;;;;;;15.07;8.32;;;;;;;;;;5096812;28;20043;-28
2022/04/04 05:41:03;;;;;;;13.05;8.20;;;;;;;;;;5096147;28;20050;-28
2022/04/04 05:43:29;;;;;;;15.77;7.65;;;;;;;;;;5114510;28;20054;-28
2022/04/04 05:45:55;;;;;;;11.75;6.32;;;;;;;;;;5096054;28;20093;-28
2022/04/04 05:48:23;;;;;;;7.38;4.97;;;;;;;;;;5096042;28;20040;-27
2022/04/04 05:50:49;;;;;;;11.25;5.78;;;;;;;;;;5114092;28;20469;-27
2022/04/04 05:53:15;;;;;;;10.60;4.95;;;;;;;;;;5096205;28;20118;-27
2022/04/04 05:55:41;;;;;;;8.27;4.03;;;;;;;;;;5114060;28;20134;-27
2022/04/04 05:58:07;;;;;;;8.23;4.65;;;;;;;;;;5062270;28;20047;-27
2022/04/04 06:00:34;;;;;;;8.95;3.97;;;;;;;;;;5114216;28;20435;-27
2022/04/04 06:03:00;;;;;;;9.82;4.07;;;;;;;;;;5096076;28;20048;-28
2022/04/04 06:05:26;;;;;;;6.97;3.35;;;;;;;;;;5113997;28;20135;-27
2022/04/04 06:07:52;;;;;;;8.15;3.97;;;;;;;;;;5114051;28;20039;-27
2022/04/04 06:10:19;;;;;;;5.63;2.70;;;;;;;;;;5113954;28;20408;-28
2022/04/04 06:12:45;;;;;;;6.70;3.38;;;;;;;;;;5113932;28;20047;-28
2022/04/04 06:15:12;;;;;;;6.30;3.00;;;;;;;;;;5113901;28;20131;-27
2022/04/04 06:17:42;;;;;;;5.35;2.22;;;;;;;;;;5096658;28;20079;-28
2022/04/04 06:20:09;;;;;;;5.30;1.98;;;;;;;;;;5096754;28;20047;-29
2022/04/04 06:22:36;;;;;;;5.50;2.17;;;;;;;;;;5113891;28;20044;-27
2022/04/04 06:25:03;;;;;;;6.82;2.05;;;;;;;;;;5095896;28;20088;-28
2022/04/04 06:27:30;;;;;;;4.22;1.98;;;;;;;;;;5113776;28;20044;-28
2022/04/04 06:29:57;;;;;;;5.07;2.50;;;;;;;;;;5113830;28;20064;-28
2022/04/04 06:32:24;;;;;;;7.35;2.47;;;;;;;;;;5114218;28;20047;-28
2022/04/04 06:34:50;;;;;;;5.05;2.47;;;;;;;;;;5113795;28;20055;-29
2022/04/04 06:37:16;;;;;;;4.20;2.63;;;;;;;;;;5114134;28;20052;-28
2022/04/04 06:39:43;;;;;;;4.97;2.97;;;;;;;;;;5113662;28;20040;-29
2022/04/04 06:42:09;;;;;;;4.93;3.15;;;;;;;;;;5116794;28;20053;-28
2022/04/04 06:44:36;;;;;;;11.10;3.58;;;;;;;;;;5117553;28;20062;-29
2022/04/04 06:47:03;;;;;;;4.63;2.53;;;;;;;;;;5099366;28;20050;-28
2022/04/04 06:49:29;;;;;;;7.85;3.03;;;;;;;;;;5118058;28;20043;-29
2022/04/04 06:51:56;;;;;;;4.88;2.95;;;;;;;;;;5117391;28;20052;-29
2022/04/04 06:54:23;;;;;;;5.53;3.20;;;;;;;;;;5117981;28;20214;-29
2022/04/04 06:56:49;;;;;;;7.40;4.05;;;;;;;;;;5099405;28;20044;-29
2022/04/04 06:59:18;;;;;;;6.35;3.95;;;;;;;;;;5099217;28;20116;-28
2022/04/04 07:01:44;;;;;;;9.93;4.72;;;;;;;;;;5100134;28;20055;-29
2022/04/04 07:04:11;;;;;;;6.10;3.67;;;;;;;;;;5099029;28;20054;-28
2022/04/04 07:06:37;;;;;;;6.03;3.42;;;;;;;;;;5099081;28;20048;-29
2022/04/04 07:09:04;;;;;;;13.48;4.38;;;;;;;;;;5117414;28;20035;-29
2022/04/04 07:11:30;;;;;;;4.57;3.67;;;;;;;;;;5117139;28;20043;-30
2022/04/04 07:13:56;;;;;;;9.10;4.70;;;;;;;;;;5117052;28;20047;-29
2022/04/04 07:16:25;;;;;;;10.00;5.30;;;;;;;;;;5116985;28;20375;-30
2022/04/04 07:18:52;;;;;;;7.97;5.28;;;;;;;;;;5098691;28;20051;-30
2022/04/04 07:21:18;;;;;;;11.50;6.57;;;;;;;;;;5098890;28;20122;-29
2022/04/04 07:23:45;;;;;;;9.68;5.60;;;;;;;;;;5116915;28;20050;-31
2022/04/04 07:26:11;;;;;;;13.10;8.70;;;;;;;;;;5116808;28;20069;-31
2022/04/04 07:28:42;;;;;;;19.40;7.10;;;;;;;;;;5116731;28;20036;-30
2022/04/04 07:31:09;;;;;;;16.00;9.55;;;;;;;;;;5117352;28;20052;-30
2022/04/04 07:33:35;;;;;;;9.73;5.65;;;;;;;;;;5098667;28;20104;-31
2022/04/04 07:36:02;;;;;;;11.73;7.25;;;;;;;;;;5116906;28;20039;-31
2022/04/04 07:38:29;;;;;;;9.05;5.78;;;;;;;;;;5098407;28;20043;-31
2022/04/04 07:40:55;;;;;;;8.48;6.05;;;;;;;;;;5116595;28;20058;-30
2022/04/04 07:43:21;;;;;;;11.65;7.97;;;;;;;;;;5098554;28;20058;-30
2022/04/04 07:45:47;;;;;;;18.40;8.00;;;;;;;;;;5116958;28;20048;-31
2022/04/04 07:48:13;;;;;;;14.65;7.43;;;;;;;;;;5116400;28;20050;-31
2022/04/04 07:50:41;;;;;;;16.65;8.80;;;;;;;;;;5116695;28;20082;-32
2022/04/04 07:53:07;;;;;;;8.75;5.55;;;;;;;;;;5097742;28;20173;-33
2022/04/04 07:55:36;;;;;;;11.15;5.85;;;;;;;;;;5116758;28;20084;-31
2022/04/04 07:58:02;;;;;;;9.20;5.95;;;;;;;;;;5116125;28;20043;-30
2022/04/04 08:00:28;;;;;;;9.60;5.65;;;;;;;;;;5116386;28;20056;-32
2022/04/04 08:02:55;;;;;;;7.75;5.53;;;;;;;;;;5116120;28;20105;-32
2022/04/04 08:05:21;;;;;;;8.70;5.53;;;;;;;;;;5081206;28;20534;-33
2022/04/04 08:07:48;;;;;;;9.38;5.43;;;;;;;;;;5116089;28;20127;-33
2022/04/04 08:10:18;;;;;;;12.27;5.57;;;;;;;;;;5116109;28;20108;-33
2022/04/04 08:12:45;;;;;;;15.60;6.53;;;;;;;;;;5116008;28;20050;-32
2022/04/04 08:15:11;;;;;;;8.30;5.22;;;;;;;;;;5115904;28;20082;-33
2022/04/04 08:17:38;;;;;;;8.95;5.10;;;;;;;;;;5116057;28;20105;-33
2022/04/04 08:20:04;;;;;;;17.50;5.20;;;;;;;;;;5115788;28;20044;-33
2022/04/04 08:22:30;;;;;;;5.65;3.92;;;;;;;;;;5081478;28;20044;-34
2022/04/04 08:24:56;;;;;;;11.95;5.25;;;;;;;;;;5115960;28;20043;-32
2022/04/04 08:27:22;;;;;;;9.25;4.43;;;;;;;;;;5115309;28;20489;-33
2022/04/04 08:29:49;;;;;;;5.38;4.05;;;;;;;;;;5115564;28;20047;-32
2022/04/04 08:32:17;;;;;;;4.68;3.50;;;;;;;;;;5115418;28;20176;-34
2022/04/04 08:34:43;;;;;;;13.32;5.63;;;;;;;;;;5115496;28;20164;-33
2022/04/04 08:37:09;;;;;;;7.63;4.25;;;;;;;;;;5115412;28;20126;-34
2022/04/04 08:39:35;;;;;;;4.53;2.97;;;;;;;;;;5115918;28;20066;-34
2022/04/04 08:42:03;;;;;;;6.57;4.18;;;;;;;;;;5115402;28;20047;-34
2022/04/04 08:44:29;;;;;;;4.60;3.10;;;;;;;;;;5097011;28;20043;-33
2022/04/04 08:46:55;;;;;;;4.50;3.17;;;;;;;;;;5115190;28;20051;-33
2022/04/04 08:49:21;;;;;;;6.65;4.13;;;;;;;;;;5080409;28;20051;-34
2022/04/04 08:51:50;;;;;;;7.10;4.30;;;;;;;;;;5115495;28;20051;-34
2022/04/04 08:54:18;;;;;;;5.53;3.72;;;;;;;;;;5115079;28;20097;-32
2022/04/04 08:56:44;;;;;;;4.97;3.60;;;;;;;;;;5115105;28;20099;-32
2022/04/04 08:59:10;;;;;;;7.97;4.22;;;;;;;;;;5096827;28;20047;-33
2022/04/04 09:01:36;;;;;;;10.10;4.47;;;;;;;;;;5114889;28;20493;-33
2022/04/04 09:04:03;;;;;;;5.72;2.88;;;;;;;;;;5113959;28;20051;-33
2022/04/04 09:06:29;;;;;;;5.50;2.88;;;;;;;;;;5115136;28;20043;-33
2022/04/04 09:08:56;;;;;;;7.75;3.15;;;;;;;;;;5114807;28;20043;-34
2022/04/04 09:11:23;;;;;;;8.00;4.07;;;;;;;;;;5080125;28;20389;-32
2022/04/04 09:14:07;;;;;;;3.38;2.05;;;;;;;;;;5096640;28;20050;-33
2022/04/04 09:16:34;;;;;;;3.53;2.33;;;;;;;;;;5114767;28;20088;-34
2022/04/04 09:19:00;;;;;;;3.38;2.00;;;;;;;;;;5096448;28;20050;-33
2022/04/04 09:21:27;;;;;;;3.95;2.88;;;;;;;;;;5114672;28;20096;-33
2022/04/04 09:23:56;;;;;;;7.20;2.72;;;;;;;;;;5114563;28;20058;-33
2022/04/04 09:26:29;;;;;;;7.57;3.55;;;;;;;;;;5114562;28;20090;-34
2022/04/04 09:28:55;;;;;;;;;;;;;;;;;;5114968;28;20338;-33
2022/04/04 09:31:21;;;;;;;5.25;2.38;;;;;;;;;;5114677;28;20272;-34
2022/04/04 09:33:47;;;;;;;5.18;2.58;;;;;;;;;;5114523;28;20043;-33
2022/04/04 09:36:14;;;;;;;4.60;2.55;;;;;;;;;;5114577;28;20088;-32
2022/04/04 09:38:43;;;;;;;7.55;2.47;;;;;;;;;;5079439;28;20493;-32
2022/04/04 09:41:15;;;;;;;7.47;2.78;;;;;;;;;;5114253;28;20043;-33
2022/04/04 09:43:50;;;;;;;9.18;2.63;;;;;;;;;;5114197;28;20055;-34
2022/04/04 09:46:16;;;;;;;6.15;3.05;;;;;;;;;;5114491;28;20147;-33
2022/04/04 09:49:01;;;;;;;6.60;2.33;;;;;;;;;;5114198;28;20043;-34
2022/04/04 09:51:41;;;;;;;6.95;2.50;;;;;;;;;;5096275;28;20074;-33
2022/04/04 09:54:09;;;;;;;3.25;1.90;;;;;;;;;;5113800;28;20445;-33
2022/04/04 09:56:35;;;;;;;3.05;1.67;;;;;;;;;;5114047;28;20047;-31
2022/04/04 09:59:02;;;;;;;4.35;1.95;;;;;;;;;;5113993;28;20039;-33
2022/04/04 10:01:30;;;;;;;5.30;2.17;;;;;;;;;;5113642;28;20193;-34
2022/04/04 10:03:56;;;;;;;3.90;1.85;;;;;;;;;;5114249;28;20050;-34
2022/04/04 10:06:26;;;;;;;6.65;2.40;;;;;;;;;;5113973;28;20104;-32
2022/04/04 10:08:54;;;;;;;6.05;1.75;;;;;;;;;;5114504;28;20134;-34
2022/04/04 10:11:21;;;;;;;4.28;1.85;;;;;;;;;;5114217;28;20052;-33
2022/04/04 10:13:47;;;;;;;5.00;1.92;;;;;;;;;;5095905;28;20044;-33
2022/04/04 10:16:13;;;;;;;7.70;2.15;;;;;;;;;;5116792;28;20043;-34
2022/04/04 10:18:43;;;;;;;4.88;2.00;;;;;;;;;;5099885;28;20039;-35
2022/04/04 10:21:09;;;;;;;3.00;1.42;;;;;;;;;;5118517;28;20438;-34
2022/04/04 10:23:37;;;;;;;5.97;2.13;;;;;;;;;;5117967;28;20049;-34
2022/04/04 10:26:03;;;;;;;3.20;1.30;;;;;;;;;;5118483;28;20366;-33
2022/04/04 10:28:34;;;;;;;2.83;1.40;;;;;;;;;;5117922;28;20040;-33
2022/04/04 10:31:01;;;;;;;2.65;1.02;;;;;;;;;;5117575;28;20477;-32
2022/04/04 10:33:28;;;;;;;7.75;1.50;;;;;;;;;;5099502;28;20047;-35
2022/04/04 10:36:08;;;;;;;5.65;1.65;;;;;;;;;;5117787;28;20054;-33
2022/04/04 10:38:35;;;;;;;4.30;1.60;;;;;;;;;;5082702;28;20039;-33
2022/04/04 10:41:05;;;;;;;3.05;1.45;;;;;;;;;;5100116;28;20385;-33
2022/04/04 10:43:32;;;;;;;4.05;1.45;;;;;;;;;;5083194;28;20047;-35
2022/04/04 10:46:00;;;;;;;2.75;1.40;;;;;;;;;;5117648;28;20099;-37
2022/04/04 10:48:27;;;;;;;5.65;2.10;;;;;;;;;;5118119;28;20172;-35
2022/04/04 10:50:53;;;;;;;7.63;2.63;;;;;;;;;;5117239;28;20087;-37
2022/04/04 10:53:35;;;;;;;3.72;0.85;;;;;;;;;;5082778;28;20079;-36
2022/04/04 10:56:04;;;;;;;4.80;0.95;;;;;;;;;;5117197;28;20484;-33
2022/04/04 10:58:30;;;;;;;3.72;1.65;;;;;;;;;;5116959;28;20385;-36
2022/04/04 11:00:58;;;;;;;1.88;0.85;;;;;;;;;;5117743;28;20066;-33
2022/04/04 11:03:32;;;;;;;2.88;1.10;;;;;;;;;;5117569;28;20054;-35
2022/04/04 11:08:59;;;;;;;1.42;0.65;;;;;;;;;;5127984;27;20043;-37
2022/04/04 11:11:47;;;;;;;0.47;0.40;;;;;;;;;;5118609;27;20152;-33
2022/04/04 11:14:14;;;;;;;0.60;0.60;;;;;;;;;;5138016;27;20054;-34
2022/04/04 11:16:59;;;;;;;1.73;0.90;;;;;;;;;;5119454;27;20043;-37
2022/04/04 11:19:28;;;;;;;1.27;1.08;;;;;;;;;;5137583;27;20067;-39
2022/04/04 11:21:55;;;;;;;0.70;0.30;;;;;;;;;;5119331;27;20047;-40
2022/04/04 11:24:21;;;;;;;2.00;0.65;;;;;;;;;;5119730;27;20050;-37
2022/04/04 11:26:48;;;;;;;1.05;0.57;;;;;;;;;;5136498;27;20058;-36
2022/04/04 11:29:19;;;;;;;0.65;0.47;;;;;;;;;;5137369;27;20044;-40
2022/04/04 11:31:49;;;;;;;2.38;0.73;;;;;;;;;;5119632;27;20055;-38
2022/04/04 11:34:15;;;;;;;2.15;0.50;;;;;;;;;;5137177;27;20043;-41
2022/04/04 11:36:42;;;;;;;0.82;0.47;;;;;;;;;;5137539;27;20158;-40
2022/04/04 11:39:09;;;;;;;1.17;0.57;;;;;;;;;;5136710;27;20163;-42
2022/04/04 11:41:36;;;;;;;0.60;0.30;;;;;;;;;;5119250;27;20086;-41
2022/04/04 11:44:05;;;;;;;2.13;0.52;;;;;;;;;;5137037;27;20051;-40
2022/04/04 11:46:32;;;;;;;1.08;0.68;;;;;;;;;;5118877;27;20046;-35
2022/04/04 11:48:59;;;;;;;0.57;0.32;;;;;;;;;;5137503;27;20426;-39
2022/04/04 11:51:32;;;;;;;1.67;0.57;;;;;;;;;;5084573;27;20095;-39
2022/04/04 11:54:07;;;;;;;2.10;0.40;;;;;;;;;;5137006;27;20386;-36
2022/04/04 11:56:33;;;;;;;1.55;0.82;;;;;;;;;;5137471;27;20091;-40
2022/04/04 11:59:04;;;;;;;1.75;0.65;;;;;;;;;;5136685;27;20035;-42
2022/04/04 12:01:34;;;;;;;2.40;1.08;;;;;;;;;;5118817;27;20054;-41
2022/04/04 12:04:01;;;;;;;0.88;0.50;;;;;;;;;;5137302;27;20134;-41
2022/04/04 12:06:29;;;;;;;1.65;0.50;;;;;;;;;;5136676;27;20189;-41
2022/04/04 12:08:57;;;;;;;2.10;0.85;;;;;;;;;;5136672;27;20047;-40
2022/04/04 12:11:29;;;;;;;1.08;0.52;;;;;;;;;;5118481;27;20065;-41
2022/04/04 12:14:00;;;;;;;0.75;0.55;;;;;;;;;;5118192;27;20045;-41
2022/04/04 12:16:27;;;;;;;1.02;0.55;;;;;;;;;;5137355;27;20053;-40
2022/04/04 12:19:04;;;;;;;0.88;0.52;;;;;;;;;;5136388;27;20043;-41
2022/04/04 12:21:31;;;;;;;1.77;0.90;;;;;;;;;;5137022;27;20086;-41
2022/04/04 12:26:45;;;;;;;0.60;0.55;;;;;;;;;;5136787;27;20083;-42
2022/04/04 12:29:12;;;;;;;0.70;0.50;;;;;;;;;;5136948;27;20383;-42
2022/04/04 12:31:38;;;;;;;1.25;1.00;;;;;;;;;;5136112;27;20055;-42
2022/04/04 12:34:09;;;;;;;2.05;1.40;;;;;;;;;;5135996;27;20051;-43
2022/04/04 12:36:40;;;;;;;2.13;1.08;;;;;;;;;;5135998;27;20094;-43
2022/04/04 12:39:17;;;;;;;2.67;1.13;;;;;;;;;;5135874;27;20039;-44
2022/04/04 12:41:50;;;;;;;1.33;0.85;;;;;;;;;;5118081;27;20047;-43
2022/04/04 12:44:20;;;;;;;1.45;1.08;;;;;;;;;;5136711;27;20103;-42
2022/04/04 12:46:46;;;;;;;4.28;2.42;;;;;;;;;;5135827;27;20055;-42
2022/04/04 12:49:19;;;;;;;1.77;0.77;;;;;;;;;;5118329;27;20533;-42
2022/04/04 12:51:59;;;;;;;3.97;1.65;;;;;;;;;;5118347;27;20043;-43
2022/04/04 12:54:28;;;;;;;2.60;1.90;;;;;;;;;;5118103;27;20050;-44
2022/04/04 12:56:55;;;;;;;2.85;2.40;;;;;;;;;;5118340;27;20464;-43
2022/04/04 12:59:25;;;;;;;2.88;1.20;;;;;;;;;;5099886;27;20122;-44
2022/04/04 13:02:20;;;;;;;3.60;1.83;;;;;;;;;;5100760;27;20054;-45
2022/04/04 13:04:46;;;;;;;2.65;1.77;;;;;;;;;;5113860;27;20062;-45
2022/04/04 13:07:19;;;;;;;5.22;2.17;;;;;;;;;;5135502;27;20047;-45
2022/04/04 13:09:49;;;;;;;3.97;2.05;;;;;;;;;;5135374;27;20492;-45
2022/04/04 13:12:24;;;;;;;4.70;2.83;;;;;;;;;;5099884;27;20499;-47
2022/04/04 13:14:50;;;;;;;4.93;2.42;;;;;;;;;;5135528;27;20051;-47
2022/04/04 13:17:16;;;;;;;4.28;2.03;;;;;;;;;;5116876;27;20051;-45
2022/04/04 13:19:42;;;;;;;7.72;3.33;;;;;;;;;;5135088;27;20050;-36
2022/04/04 13:22:08;;;;;;;7.70;3.50;;;;;;;;;;5135116;27;20039;-40
2022/04/04 13:24:34;;;;;;;6.68;2.85;;;;;;;;;;5135095;27;20074;-39
2022/04/04 13:27:01;;;;;;;4.32;2.20;;;;;;;;;;5135142;27;20039;-39
2022/04/04 13:29:29;;;;;;;3.40;2.35;;;;;;;;;;5134997;27;20069;-39
2022/04/04 13:31:55;;;;;;;6.75;2.90;;;;;;;;;;5134895;27;20049;-36
2022/04/04 13:34:21;;;;;;;5.53;2.22;;;;;;;;;;5134463;27;20402;-39
2022/04/04 13:36:48;;;;;;;7.35;3.72;;;;;;;;;;5116850;27;20503;-38
2022/04/04 13:39:14;;;;;;;11.55;4.50;;;;;;;;;;5134895;27;20050;-37
2022/04/04 13:41:42;;;;;;;9.60;4.38;;;;;;;;;;5135685;27;20039;-34
2022/04/04 13:44:11;;;;;;;8.73;3.58;;;;;;;;;;5134833;27;20051;-39
2022/04/04 13:46:37;;;;;;;12.55;5.60;;;;;;;;;;5134816;27;20047;-38
2022/04/04 13:49:03;;;;;;;9.70;5.38;;;;;;;;;;5116661;27;20050;-35
2022/04/04 13:51:30;;;;;;;10.85;3.92;;;;;;;;;;5135106;27;20078;-39
2022/04/04 13:54:00;;;;;;;9.60;5.00;;;;;;;;;;5099581;28;20492;-39
2022/04/04 13:56:27;;;;;;;9.13;4.18;;;;;;;;;;5134730;27;20500;-39
2022/04/04 13:58:54;;;;;;;12.93;5.32;;;;;;;;;;5099163;27;20555;-39
2022/04/04 14:01:22;;;;;;;9.50;4.38;;;;;;;;;;5099059;28;20091;-39
2022/04/04 14:03:48;;;;;;;9.98;3.90;;;;;;;;;;5134606;28;20111;-34
2022/04/04 14:06:15;;;;;;;8.65;3.42;;;;;;;;;;5117054;28;20130;-37
2022/04/04 14:08:41;;;;;;;14.40;4.60;;;;;;;;;;5134242;28;20396;-35
2022/04/04 14:11:13;;;;;;;15.98;4.90;;;;;;;;;;5134528;28;20047;-39
2022/04/04 14:13:40;;;;;;;20.10;5.07;;;;;;;;;;5135411;28;20050;-35
2022/04/04 14:16:07;;;;;;;14.45;4.82;;;;;;;;;;5135116;28;20320;-35
2022/04/04 14:18:33;;;;;;;26.30;6.55;;;;;;;;;;5134690;28;20047;-35
2022/04/04 14:21:00;;;;;;;18.63;5.22;;;;;;;;;;5134544;28;20050;-35
2022/04/04 14:23:27;;;;;;;14.20;5.07;;;;;;;;;;5134416;28;20088;-34
2022/04/04 14:25:54;;;;;;;18.45;4.20;;;;;;;;;;5116330;28;20126;-34
2022/04/04 14:28:20;;;;;;;23.15;6.25;;;;;;;;;;5135252;28;20043;-34
2022/04/04 14:30:49;;;;;;;26.60;7.03;;;;;;;;;;5134395;28;20468;-33
2022/04/04 14:33:15;;;;;;;23.30;6.47;;;;;;;;;;5134299;28;20089;-34
2022/04/04 14:35:41;;;;;;;26.35;6.13;;;;;;;;;;5134091;28;20396;-34
2022/04/04 14:38:07;;;;;;;32.47;6.28;;;;;;;;;;5134697;28;20126;-34
2022/04/04 14:40:39;;;;;;;23.42;6.03;;;;;;;;;;5134854;28;20043;-34
2022/04/04 14:43:05;;;;;;;21.75;5.88;;;;;;;;;;5116259;28;20083;-35